createdAt,value
2017-02-18T00:00:09.027Z,9.67
2017-02-18T00:02:32.339Z,9.76
2017-02-18T00:04:57.969Z,9.51
2017-02-18T00:07:08.438Z,9.52
2017-02-18T00:09:32.706Z,9.58
2017-02-18T00:11:56.039Z,9.81
2017-02-18T00:14:19.749Z,9.85
2017-02-18T00:16:43.839Z,10
2017-02-18T00:19:07.605Z,9.8
2017-02-18T00:21:31.697Z,9.94
2017-02-18T00:23:55.609Z,9.85
2017-02-18T00:26:25.790Z,9.67
2017-02-18T00:28:49.349Z,9.64
2017-02-18T00:31:13.138Z,9.58
2017-02-18T00:33:36.697Z,9.54
2017-02-18T00:36:00.983Z,9.37
2017-02-18T00:38:24.544Z,9.48
2017-02-18T00:40:48.191Z,9.34
2017-02-18T00:43:13.675Z,9.44
2017-02-18T00:45:38.136Z,9.44
2017-02-18T00:48:01.890Z,9.4
2017-02-18T00:50:25.707Z,9.4
2017-02-18T00:52:49.222Z,9.26
2017-02-18T00:55:13.034Z,9.09
2017-02-18T00:57:36.303Z,9.03
2017-02-18T00:59:59.761Z,8.89
2017-02-18T01:02:23.174Z,8.93
2017-02-18T01:04:47.014Z,8.9
2017-02-18T01:07:10.776Z,9.18
2017-02-18T01:09:34.961Z,9.12
2017-02-18T01:11:59.543Z,9.15
2017-02-18T01:14:24.005Z,9.34
2017-02-18T01:16:48.294Z,9.4
2017-02-18T01:19:12.499Z,9.45
2017-02-18T01:21:36.349Z,9.44
2017-02-18T01:23:59.618Z,9.58
2017-02-18T01:26:24.121Z,9.51
2017-02-18T01:28:47.881Z,9.33
2017-02-18T01:31:11.237Z,9.3
2017-02-18T01:33:36.968Z,9.36
2017-02-18T01:36:01.247Z,9.39
2017-02-18T01:38:24.929Z,9.44
2017-02-18T01:40:41.268Z,9.54
2017-02-18T01:43:04.609Z,9.63
2017-02-18T01:45:27.963Z,9.67
2017-02-18T01:47:51.372Z,9.62
2017-02-18T01:50:14.742Z,9.67
2017-02-18T01:52:38.054Z,9.54
2017-02-18T01:55:01.425Z,9.54
2017-02-18T01:57:03.527Z,9.58
2017-02-18T01:59:27.207Z,9.49
2017-02-18T02:01:52.353Z,9.49
2017-02-18T02:04:15.946Z,9.24
2017-02-18T02:06:40.312Z,9.21
2017-02-18T02:09:03.910Z,9.29
2017-02-18T02:11:27.439Z,9.3
2017-02-18T02:13:51.950Z,9.26
2017-02-18T02:16:15.233Z,9.19
2017-02-18T02:18:39.424Z,9.21
2017-02-18T02:21:02.573Z,9.29
2017-02-18T02:23:25.938Z,9.15
2017-02-18T02:25:27.689Z,9.02
2017-02-18T02:27:51.364Z,9.02
2017-02-18T02:30:14.607Z,8.93
2017-02-18T02:32:37.967Z,8.93
2017-02-18T02:35:01.138Z,8.84
2017-02-18T02:37:25.461Z,8.72
2017-02-18T02:39:49.023Z,8.72
2017-02-18T02:42:13.464Z,8.81
2017-02-18T02:44:36.663Z,9.03
2017-02-18T02:46:59.998Z,9.02
2017-02-18T02:48:36.221Z,9.03
2017-02-18T02:50:59.535Z,8.9
2017-02-18T02:53:24.247Z,8.92
2017-02-18T02:55:47.650Z,9.05
2017-02-18T02:58:11.424Z,8.84
2017-02-18T03:00:34.797Z,8.69
2017-02-18T03:02:58.965Z,8.66
2017-02-18T03:05:23.868Z,8.63
2017-02-18T03:07:47.633Z,8.54
2017-02-18T03:10:10.756Z,8.32
2017-02-18T03:12:34.015Z,8.46
2017-02-18T03:14:57.280Z,8.54
2017-02-18T03:17:21.765Z,8.68
2017-02-18T03:19:45.303Z,8.74
2017-02-18T03:22:10.782Z,8.54
2017-02-18T03:24:34.031Z,8.38
2017-02-18T03:26:57.400Z,8.42
2017-02-18T03:29:21.623Z,8.54
2017-02-18T03:31:45.927Z,8.57
2017-02-18T03:34:09.416Z,8.69
2017-02-18T03:36:33.094Z,8.74
2017-02-18T03:38:57.624Z,8.59
2017-02-18T03:41:20.843Z,8.34
2017-02-18T03:43:44.187Z,8.14
2017-02-18T03:46:09.775Z,8.18
2017-02-18T03:48:36.162Z,7.91
2017-02-18T03:51:01.703Z,7.83
2017-02-18T03:53:25.183Z,8.16
2017-02-18T03:55:42.180Z,8.11
2017-02-18T03:58:05.712Z,8.03
2017-02-18T04:00:29.204Z,7.62
2017-02-18T04:02:52.351Z,7.83
2017-02-18T04:05:02.673Z,7.99
2017-02-18T04:07:25.939Z,8.17
2017-02-18T04:09:50.267Z,8.38
2017-02-18T04:12:14.614Z,8.14
2017-02-18T04:14:38.936Z,8.11
2017-02-18T04:17:02.467Z,8.06
2017-02-18T04:19:26.061Z,8.06
2017-02-18T04:21:51.285Z,8.16
2017-02-18T04:24:14.613Z,8.18
2017-02-18T04:26:37.766Z,8.17
2017-02-18T04:29:01.592Z,8.06
2017-02-18T04:31:26.610Z,7.83
2017-02-18T04:33:50.197Z,7.66
2017-02-18T04:36:13.664Z,7.98
2017-02-18T04:38:36.996Z,7.85
2017-02-18T04:41:00.487Z,7.91
2017-02-18T04:43:23.717Z,7.84
2017-02-18T04:45:47.203Z,7.93
2017-02-18T04:48:10.600Z,7.99
2017-02-18T04:50:34.343Z,8.01
2017-02-18T04:52:57.883Z,7.98
2017-02-18T04:55:21.972Z,8.42
2017-02-18T04:57:37.290Z,8.49
2017-02-18T05:00:00.920Z,8.41
2017-02-18T05:02:24.021Z,8.49
2017-02-18T05:04:47.150Z,8.89
2017-02-18T05:07:11.197Z,8.52
2017-02-18T05:09:35.494Z,8.5
2017-02-18T05:11:59.110Z,8.32
2017-02-18T05:14:22.323Z,8.41
2017-02-18T05:16:45.732Z,8.39
2017-02-18T05:19:10.148Z,8.49
2017-02-18T05:21:33.356Z,8.64
2017-02-18T05:23:56.857Z,8.79
2017-02-18T05:26:20.310Z,9.03
2017-02-18T05:28:22.157Z,9.08
2017-02-18T05:30:46.647Z,9.12
2017-02-18T05:33:10.089Z,9.27
2017-02-18T05:35:33.602Z,9.26
2017-02-18T05:37:57.894Z,9.19
2017-02-18T05:40:21.252Z,9.21
2017-02-18T05:42:44.497Z,9.24
2017-02-18T05:45:09.306Z,9.22
2017-02-18T05:47:32.289Z,9.36
2017-02-18T05:49:55.521Z,9.33
2017-02-18T05:52:18.798Z,9.21
2017-02-18T05:54:42.051Z,9.27
2017-02-18T05:57:05.724Z,8.81
2017-02-18T05:59:29.714Z,8.89
2017-02-18T06:01:53.432Z,8.9
2017-02-18T06:04:18.207Z,8.84
2017-02-18T06:06:41.350Z,8.93
2017-02-18T06:09:04.918Z,9.02
2017-02-18T06:11:28.372Z,9.21
2017-02-18T06:13:51.732Z,9.15
2017-02-18T06:16:16.369Z,8.92
2017-02-18T06:18:39.906Z,9.21
2017-02-18T06:21:04.163Z,9.3
2017-02-18T06:22:42.132Z,9.22
2017-02-18T06:24:57.723Z,9.36
2017-02-18T06:27:21.537Z,9.31
2017-02-18T06:29:45.884Z,8.9
2017-02-18T06:32:09.609Z,9.18
2017-02-18T06:34:32.960Z,9.19
2017-02-18T06:36:56.365Z,9.33
2017-02-18T06:39:21.651Z,9.37
2017-02-18T06:41:47.701Z,9.44
2017-02-18T06:44:02.766Z,9.49
2017-02-18T06:46:26.343Z,9.55
2017-02-18T06:48:49.681Z,9.56
2017-02-18T06:51:13.462Z,9.52
2017-02-18T06:53:36.631Z,9.56
2017-02-18T06:56:00.915Z,9.76
2017-02-18T06:58:24.498Z,9.76
2017-02-18T07:00:47.693Z,9.85
2017-02-18T07:03:11.293Z,9.99
2017-02-18T07:05:34.387Z,9.91
2017-02-18T07:07:11.057Z,9.92
2017-02-18T07:09:35.310Z,9.92
2017-02-18T07:11:58.613Z,9.91
2017-02-18T07:14:22.954Z,9.95
2017-02-18T07:16:47.291Z,10.05
2017-02-18T07:19:11.480Z,9.99
2017-02-18T07:21:34.775Z,10.1
2017-02-18T07:23:59.627Z,10.3
2017-02-18T07:26:23.343Z,10.17
2017-02-18T07:28:46.726Z,10.12
2017-02-18T07:31:12.627Z,10.05
2017-02-18T07:33:36.916Z,10.31
2017-02-18T07:36:02.534Z,10.17
2017-02-18T07:38:27.663Z,10.17
2017-02-18T07:41:00.163Z,10.28
2017-02-18T07:43:23.665Z,10.15
2017-02-18T07:47:24.086Z,10.39
2017-02-18T07:51:23.734Z,10.69
2017-02-18T07:53:48.402Z,10.51
2017-02-18T07:56:18.950Z,10.67
2017-02-18T07:58:42.578Z,10.95
2017-02-18T08:01:08.205Z,10.76
2017-02-18T08:05:09.781Z,10.71
2017-02-18T08:07:36.006Z,10.84
2017-02-18T08:11:28.085Z,10.75
2017-02-18T08:24:24.381Z,10.3
2017-02-18T08:27:13.222Z,10.87
2017-02-18T08:33:44.168Z,11.3
2017-02-18T08:37:43.591Z,11.44
2017-02-18T08:39:58.660Z,11.65
2017-02-18T08:43:58.685Z,11.16
2017-02-18T08:46:22.652Z,11.37
2017-02-18T08:49:02.423Z,11.22
2017-02-18T08:53:02.781Z,11.4
2017-02-18T08:57:02.781Z,10.86
2017-02-18T09:01:13.767Z,11.45
2017-02-18T09:05:13.832Z,11.34
2017-02-18T09:09:14.388Z,11.2
2017-02-18T09:11:38.222Z,11.34
2017-02-18T09:14:08.924Z,11.18
2017-02-18T09:18:09.057Z,11.34
2017-02-18T09:22:11.744Z,11.34
2017-02-18T09:25:58.776Z,10.95
2017-02-18T09:30:02.431Z,11.26
2017-02-18T09:32:33.455Z,10.94
2017-02-18T09:34:59.696Z,10.9
2017-02-18T09:37:23.022Z,11.18
2017-02-18T09:41:22.720Z,11.31
2017-02-18T09:43:47.771Z,12.05
2017-02-18T09:46:03.018Z,12.21
2017-02-18T09:48:27.302Z,12.07
2017-02-18T09:50:50.964Z,12.53
2017-02-18T09:53:14.669Z,12.05
2017-02-18T09:55:38.496Z,12.37
2017-02-18T09:58:01.739Z,12.68
2017-02-18T10:00:26.104Z,12.69
2017-02-18T10:02:50.707Z,12.86
2017-02-18T10:05:20.860Z,12.81
2017-02-18T10:07:45.311Z,12.29
2017-02-18T10:10:08.956Z,12.51
2017-02-18T10:12:32.283Z,12.68
2017-02-18T10:14:55.851Z,12.99
2017-02-18T10:17:21.389Z,12.86
2017-02-18T10:19:45.173Z,13.31
2017-02-18T10:22:00.159Z,13.13
2017-02-18T10:24:24.102Z,13.12
2017-02-18T10:26:48.578Z,13.11
2017-02-18T10:29:12.443Z,13.46
2017-02-18T10:31:38.062Z,12.57
2017-02-18T10:34:01.852Z,12.29
2017-02-18T10:36:26.513Z,12.3
2017-02-18T10:38:42.280Z,12.9
2017-02-18T10:41:05.884Z,12.55
2017-02-18T10:43:30.433Z,12.21
2017-02-18T10:45:53.947Z,12.8
2017-02-18T10:48:17.514Z,13.26
2017-02-18T10:50:41.190Z,13.42
2017-02-18T10:53:04.956Z,13.54
2017-02-18T10:55:28.694Z,13.75
2017-02-18T10:57:53.283Z,13.7
2017-02-18T11:00:17.085Z,14.04
2017-02-18T11:02:40.666Z,13.57
2017-02-18T11:05:04.150Z,13.73
2017-02-18T11:06:40.359Z,14.13
2017-02-18T11:08:55.492Z,13.83
2017-02-18T11:11:18.997Z,13.43
2017-02-18T11:13:42.475Z,12.9
2017-02-18T11:16:06.034Z,13.52
2017-02-18T11:18:29.575Z,13.82
2017-02-18T11:20:53.119Z,13.64
2017-02-18T11:23:16.601Z,13.57
2017-02-18T11:25:40.165Z,14.22
2017-02-18T11:28:03.753Z,15.27
2017-02-18T11:30:27.195Z,15.08
2017-02-18T11:32:50.743Z,15.05
2017-02-18T11:35:14.373Z,14.87
2017-02-18T11:37:38.884Z,15.18
2017-02-18T11:40:04.707Z,14.58
2017-02-18T11:42:29.931Z,14.92
2017-02-18T11:44:57.732Z,14
2017-02-18T11:47:23.005Z,14.85
2017-02-18T11:49:54.055Z,14.71
2017-02-18T11:52:23.172Z,14.44
2017-02-18T11:54:47.009Z,15.17
2017-02-18T11:57:11.142Z,14.31
2017-02-18T11:59:15.305Z,14.22
2017-02-18T12:01:40.634Z,13.24
2017-02-18T19:17:08.802Z,9.88
2017-02-18T19:21:02.352Z,9.66
2017-02-18T19:23:26.235Z,9.55
2017-02-18T19:34:06.205Z,9.24
2017-02-18T19:38:38.536Z,9.24
2017-02-18T19:40:55.518Z,9.22
2017-02-18T19:44:56.137Z,8.78
2017-02-18T19:47:21.365Z,9.05
2017-02-18T19:49:24.143Z,9.24
2017-02-18T19:53:42.621Z,9.26
2017-02-18T19:55:53.787Z,9.22
2017-02-18T20:16:54.001Z,9.12
2017-02-18T20:21:09.080Z,9.13
2017-02-18T20:28:11.597Z,8.82
2017-02-18T20:30:43.498Z,9.03
2017-02-18T20:33:22.492Z,8.77
2017-02-18T20:35:46.858Z,8.99
2017-02-18T20:37:25.022Z,8.74
2017-02-18T20:39:49.434Z,8.63
2017-02-18T20:42:12.614Z,8.81
2017-02-18T20:49:27.092Z,9.11
2017-02-18T20:51:45.093Z,8.96
2017-02-18T20:54:08.555Z,9.09
2017-02-18T20:56:37.523Z,9.09
2017-02-18T21:15:21.962Z,8.54
2017-02-18T21:19:25.448Z,8.44
2017-02-18T21:25:06.021Z,7.99
2017-02-18T21:27:53.368Z,8.09
2017-02-18T21:30:16.811Z,8.2
2017-02-18T21:32:48.029Z,8.17
2017-02-18T21:35:11.766Z,7.93
2017-02-18T21:37:18.624Z,7.83
2017-02-18T21:41:23.199Z,7.91
2017-02-18T21:43:18.865Z,7.98
2017-02-18T21:45:44.544Z,7.55
2017-02-18T21:48:09.393Z,7.87
2017-02-18T21:50:48.985Z,7.75
2017-02-18T21:53:14.233Z,7.61
2017-02-18T21:55:40.197Z,7.77
2017-02-18T21:58:19.466Z,7.85
2017-02-18T22:00:44.888Z,7.96
2017-02-18T22:04:46.189Z,7.99
2017-02-18T22:07:09.677Z,8.06
2017-02-18T22:09:34.197Z,7.8
2017-02-18T22:12:06.862Z,7.83
2017-02-18T22:14:31.020Z,7.51
2017-02-18T22:16:56.687Z,7.53
2017-02-18T22:21:06.632Z,7.66
2017-02-18T22:23:39.224Z,7.5
2017-02-18T22:25:56.199Z,7.46
2017-02-18T22:28:22.757Z,6.93
2017-02-18T22:30:46.875Z,7.18
2017-02-18T22:33:11.638Z,7.18
2017-02-18T22:35:34.693Z,7.25
2017-02-18T22:38:00.929Z,6.72
2017-02-18T22:40:24.990Z,6.57
2017-02-18T22:43:06.121Z,6.39
2017-02-18T22:45:18.086Z,6.93
2017-02-18T22:47:50.804Z,6.77
2017-02-18T22:50:14.339Z,6.95
2017-02-18T22:52:37.894Z,6.93
2017-02-18T22:55:08.875Z,6.68
2017-02-18T22:57:32.294Z,6.87
2017-02-18T22:59:57.090Z,6.8
2017-02-18T23:02:20.488Z,6.75
2017-02-18T23:04:51.805Z,6.72
2017-02-18T23:07:21.746Z,6.96
2017-02-18T23:09:47.208Z,6.67
2017-02-18T23:12:11.230Z,6.72
2017-02-18T23:13:47.859Z,6.46
2017-02-18T23:16:10.913Z,6.35
2017-02-18T23:18:34.018Z,6.19
2017-02-18T23:21:04.821Z,6.41
2017-02-18T23:23:28.956Z,6.17
2017-02-18T23:25:51.880Z,6.15
2017-02-18T23:28:14.954Z,6.12
2017-02-18T23:30:37.863Z,5.9
2017-02-18T23:33:01.013Z,5.97
2017-02-18T23:35:24.974Z,5.98
2017-02-18T23:37:50.096Z,5.91
2017-02-18T23:40:14.293Z,6.2
2017-02-18T23:42:38.373Z,6.26
2017-02-18T23:45:02.375Z,6.13
2017-02-18T23:47:25.466Z,6.07
2017-02-18T23:49:49.479Z,5.99
2017-02-18T23:52:13.528Z,5.97
2017-02-18T23:54:36.920Z,6.12
2017-02-18T23:56:59.937Z,6.07
2017-02-18T23:59:23.032Z,6.16
